sensor_id;sensor_type;location;lat;lon;timestamp;P1;durP1;ratioP1;P2;durP2;ratioP2
15883;SDS011;8040;50.254;10.960;2024-03-08T00:02:05;421.27;;;91.10;;
15883;SDS011;8040;50.254;10.960;2024-03-08T00:04:32;411.38;;;89.82;;
15883;SDS011;8040;50.254;10.960;2024-03-08T00:06:57;422.80;;;94.07;;
15883;SDS011;8040;50.254;10.960;2024-03-08T00:09:24;423.30;;;93.17;;
15883;SDS011;8040;50.254;10.960;2024-03-08T00:11:49;414.80;;;90.90;;
15883;SDS011;8040;50.254;10.960;2024-03-08T00:14:15;419.65;;;92.72;;
15883;SDS011;8040;50.254;10.960;2024-03-08T00:16:41;414.77;;;90.10;;
15883;SDS011;8040;50.254;10.960;2024-03-08T00:19:08;418.93;;;92.17;;
15883;SDS011;8040;50.254;10.960;2024-03-08T00:21:34;417.00;;;90.97;;
15883;SDS011;8040;50.254;10.960;2024-03-08T00:24:00;417.88;;;91.60;;
15883;SDS011;8040;50.254;10.960;2024-03-08T00:26:26;419.42;;;90.50;;
15883;SDS011;8040;50.254;10.960;2024-03-08T00:28:51;415.93;;;89.37;;
15883;SDS011;8040;50.254;10.960;2024-03-08T00:31:17;417.67;;;90.13;;
15883;SDS011;8040;50.254;10.960;2024-03-08T00:33:42;428.20;;;93.70;;
15883;SDS011;8040;50.254;10.960;2024-03-08T00:36:08;427.40;;;94.23;;
15883;SDS011;8040;50.254;10.960;2024-03-08T00:38:33;434.67;;;97.33;;
15883;SDS011;8040;50.254;10.960;2024-03-08T00:40:59;417.45;;;90.10;;
15883;SDS011;8040;50.254;10.960;2024-03-08T00:43:25;414.63;;;89.32;;
15883;SDS011;8040;50.254;10.960;2024-03-08T00:45:51;416.35;;;91.07;;
15883;SDS011;8040;50.254;10.960;2024-03-08T00:48:16;413.70;;;89.18;;
15883;SDS011;8040;50.254;10.960;2024-03-08T00:50:42;412.33;;;88.27;;
15883;SDS011;8040;50.254;10.960;2024-03-08T00:53:10;421.08;;;91.30;;
15883;SDS011;8040;50.254;10.960;2024-03-08T00:55:36;417.50;;;89.65;;
15883;SDS011;8040;50.254;10.960;2024-03-08T00:58:03;425.38;;;91.68;;
15883;SDS011;8040;50.254;10.960;2024-03-08T01:00:29;416.73;;;89.93;;
15883;SDS011;8040;50.254;10.960;2024-03-08T01:02:54;434.25;;;96.15;;
15883;SDS011;8040;50.254;10.960;2024-03-08T01:05:20;423.13;;;92.05;;
15883;SDS011;8040;50.254;10.960;2024-03-08T01:07:46;420.02;;;90.72;;
15883;SDS011;8040;50.254;10.960;2024-03-08T01:10:12;415.80;;;88.97;;
15883;SDS011;8040;50.254;10.960;2024-03-08T01:12:38;410.83;;;88.00;;
15883;SDS011;8040;50.254;10.960;2024-03-08T01:15:07;413.70;;;88.18;;
15883;SDS011;8040;50.254;10.960;2024-03-08T01:17:34;415.67;;;88.55;;
15883;SDS011;8040;50.254;10.960;2024-03-08T01:19:59;416.63;;;89.80;;
15883;SDS011;8040;50.254;10.960;2024-03-08T01:22:25;419.40;;;90.20;;
15883;SDS011;8040;50.254;10.960;2024-03-08T01:24:50;416.87;;;89.23;;
15883;SDS011;8040;50.254;10.960;2024-03-08T01:27:16;418.73;;;90.33;;
15883;SDS011;8040;50.254;10.960;2024-03-08T01:29:41;441.13;;;99.03;;
15883;SDS011;8040;50.254;10.960;2024-03-08T01:32:07;427.48;;;92.85;;
15883;SDS011;8040;50.254;10.960;2024-03-08T01:34:33;416.40;;;87.80;;
15883;SDS011;8040;50.254;10.960;2024-03-08T01:37:01;408.38;;;86.97;;
15883;SDS011;8040;50.254;10.960;2024-03-08T01:39:27;417.70;;;88.40;;
15883;SDS011;8040;50.254;10.960;2024-03-08T01:41:52;411.47;;;87.10;;
15883;SDS011;8040;50.254;10.960;2024-03-08T01:44:19;408.70;;;87.50;;
15883;SDS011;8040;50.254;10.960;2024-03-08T01:46:45;412.65;;;88.05;;
15883;SDS011;8040;50.254;10.960;2024-03-08T01:49:14;418.48;;;90.85;;
15883;SDS011;8040;50.254;10.960;2024-03-08T01:51:44;422.98;;;91.03;;
15883;SDS011;8040;50.254;10.960;2024-03-08T01:54:10;417.80;;;88.93;;
15883;SDS011;8040;50.254;10.960;2024-03-08T01:56:37;421.23;;;89.28;;
15883;SDS011;8040;50.254;10.960;2024-03-08T01:59:03;435.15;;;94.20;;
15883;SDS011;8040;50.254;10.960;2024-03-08T02:01:31;431.58;;;95.07;;
15883;SDS011;8040;50.254;10.960;2024-03-08T02:03:57;428.02;;;92.03;;
15883;SDS011;8040;50.254;10.960;2024-03-08T02:06:22;424.00;;;90.17;;
15883;SDS011;8040;50.254;10.960;2024-03-08T02:08:48;416.77;;;88.53;;
15883;SDS011;8040;50.254;10.960;2024-03-08T02:11:13;419.15;;;89.22;;
15883;SDS011;8040;50.254;10.960;2024-03-08T02:13:39;415.42;;;88.53;;
15883;SDS011;8040;50.254;10.960;2024-03-08T02:16:04;417.77;;;87.77;;
15883;SDS011;8040;50.254;10.960;2024-03-08T02:18:33;420.48;;;89.53;;
15883;SDS011;8040;50.254;10.960;2024-03-08T02:21:03;414.38;;;88.18;;
15883;SDS011;8040;50.254;10.960;2024-03-08T02:23:30;417.98;;;90.50;;
15883;SDS011;8040;50.254;10.960;2024-03-08T02:25:56;421.87;;;90.53;;
15883;SDS011;8040;50.254;10.960;2024-03-08T02:28:22;436.88;;;96.75;;
15883;SDS011;8040;50.254;10.960;2024-03-08T02:30:49;435.65;;;96.20;;
15883;SDS011;8040;50.254;10.960;2024-03-08T02:33:21;416.38;;;89.38;;
15883;SDS011;8040;50.254;10.960;2024-03-08T02:35:47;417.90;;;90.03;;
15883;SDS011;8040;50.254;10.960;2024-03-08T02:38:14;424.15;;;91.28;;
15883;SDS011;8040;50.254;10.960;2024-03-08T02:40:47;417.48;;;89.90;;
15883;SDS011;8040;50.254;10.960;2024-03-08T02:43:15;421.15;;;90.63;;
15883;SDS011;8040;50.254;10.960;2024-03-08T02:45:41;419.90;;;89.38;;
15883;SDS011;8040;50.254;10.960;2024-03-08T02:48:07;426.23;;;92.55;;
15883;SDS011;8040;50.254;10.960;2024-03-08T02:50:33;420.33;;;90.35;;
15883;SDS011;8040;50.254;10.960;2024-03-08T02:53:00;426.02;;;92.57;;
15883;SDS011;8040;50.254;10.960;2024-03-08T02:55:26;428.58;;;91.63;;
15883;SDS011;8040;50.254;10.960;2024-03-08T02:57:51;438.17;;;95.95;;
15883;SDS011;8040;50.254;10.960;2024-03-08T03:00:17;427.50;;;90.90;;
15883;SDS011;8040;50.254;10.960;2024-03-08T03:02:44;419.48;;;90.97;;
15883;SDS011;8040;50.254;10.960;2024-03-08T03:05:10;423.17;;;90.95;;
15883;SDS011;8040;50.254;10.960;2024-03-08T03:07:36;424.10;;;89.30;;
15883;SDS011;8040;50.254;10.960;2024-03-08T03:10:02;424.33;;;90.03;;
15883;SDS011;8040;50.254;10.960;2024-03-08T03:12:28;423.27;;;89.72;;
15883;SDS011;8040;50.254;10.960;2024-03-08T03:14:55;421.80;;;88.70;;
15883;SDS011;8040;50.254;10.960;2024-03-08T03:17:22;418.38;;;89.28;;
15883;SDS011;8040;50.254;10.960;2024-03-08T03:19:50;420.58;;;89.05;;
15883;SDS011;8040;50.254;10.960;2024-03-08T03:22:19;426.63;;;91.88;;
15883;SDS011;8040;50.254;10.960;2024-03-08T03:24:45;431.23;;;93.80;;
15883;SDS011;8040;50.254;10.960;2024-03-08T03:27:14;428.92;;;94.03;;
15883;SDS011;8040;50.254;10.960;2024-03-08T03:29:40;429.30;;;91.65;;
15883;SDS011;8040;50.254;10.960;2024-03-08T03:32:17;422.52;;;90.43;;
15883;SDS011;8040;50.254;10.960;2024-03-08T03:34:45;417.38;;;88.53;;
15883;SDS011;8040;50.254;10.960;2024-03-08T03:37:11;419.60;;;89.13;;
15883;SDS011;8040;50.254;10.960;2024-03-08T03:39:38;420.33;;;88.47;;
15883;SDS011;8040;50.254;10.960;2024-03-08T03:42:18;413.98;;;86.38;;
15883;SDS011;8040;50.254;10.960;2024-03-08T03:44:48;409.85;;;85.53;;
15883;SDS011;8040;50.254;10.960;2024-03-08T03:47:14;412.00;;;85.93;;
15883;SDS011;8040;50.254;10.960;2024-03-08T03:49:43;415.10;;;87.63;;
15883;SDS011;8040;50.254;10.960;2024-03-08T03:52:09;413.60;;;87.65;;
15883;SDS011;8040;50.254;10.960;2024-03-08T03:54:35;402.65;;;84.85;;
15883;SDS011;8040;50.254;10.960;2024-03-08T03:57:01;409.70;;;86.23;;
15883;SDS011;8040;50.254;10.960;2024-03-08T03:59:30;413.10;;;91.72;;
15883;SDS011;8040;50.254;10.960;2024-03-08T04:01:55;407.80;;;88.70;;
15883;SDS011;8040;50.254;10.960;2024-03-08T04:04:21;408.97;;;86.43;;
15883;SDS011;8040;50.254;10.960;2024-03-08T04:06:46;396.60;;;84.47;;
15883;SDS011;8040;50.254;10.960;2024-03-08T04:09:12;406.80;;;86.47;;
15883;SDS011;8040;50.254;10.960;2024-03-08T04:11:38;394.75;;;82.00;;
15883;SDS011;8040;50.254;10.960;2024-03-08T04:14:04;401.30;;;85.53;;
15883;SDS011;8040;50.254;10.960;2024-03-08T04:16:30;397.85;;;84.47;;
15883;SDS011;8040;50.254;10.960;2024-03-08T04:18:56;397.92;;;85.85;;
15883;SDS011;8040;50.254;10.960;2024-03-08T04:21:22;397.88;;;85.43;;
15883;SDS011;8040;50.254;10.960;2024-03-08T04:23:48;399.73;;;83.07;;
15883;SDS011;8040;50.254;10.960;2024-03-08T04:26:13;422.87;;;89.83;;
15883;SDS011;8040;50.254;10.960;2024-03-08T04:28:39;402.40;;;86.70;;
15883;SDS011;8040;50.254;10.960;2024-03-08T04:31:06;421.98;;;88.05;;
15883;SDS011;8040;50.254;10.960;2024-03-08T04:33:32;432.00;;;89.80;;
15883;SDS011;8040;50.254;10.960;2024-03-08T04:35:57;424.98;;;86.75;;
15883;SDS011;8040;50.254;10.960;2024-03-08T04:38:23;434.30;;;91.07;;
15883;SDS011;8040;50.254;10.960;2024-03-08T04:40:49;427.60;;;88.25;;
15883;SDS011;8040;50.254;10.960;2024-03-08T04:43:15;438.88;;;92.20;;
15883;SDS011;8040;50.254;10.960;2024-03-08T04:45:43;434.20;;;89.50;;
15883;SDS011;8040;50.254;10.960;2024-03-08T04:48:09;430.23;;;90.78;;
15883;SDS011;8040;50.254;10.960;2024-03-08T04:50:34;429.00;;;88.60;;
15883;SDS011;8040;50.254;10.960;2024-03-08T04:53:01;442.93;;;93.97;;
15883;SDS011;8040;50.254;10.960;2024-03-08T04:55:28;449.95;;;96.28;;
15883;SDS011;8040;50.254;10.960;2024-03-08T04:57:54;443.83;;;94.22;;
15883;SDS011;8040;50.254;10.960;2024-03-08T05:00:19;431.30;;;90.75;;
15883;SDS011;8040;50.254;10.960;2024-03-08T05:02:45;430.63;;;91.37;;
15883;SDS011;8040;50.254;10.960;2024-03-08T05:05:11;441.67;;;93.27;;
15883;SDS011;8040;50.254;10.960;2024-03-08T05:07:38;441.17;;;93.65;;
15883;SDS011;8040;50.254;10.960;2024-03-08T05:10:04;437.02;;;92.65;;
15883;SDS011;8040;50.254;10.960;2024-03-08T05:12:32;443.77;;;95.85;;
15883;SDS011;8040;50.254;10.960;2024-03-08T05:14:59;435.42;;;91.93;;
15883;SDS011;8040;50.254;10.960;2024-03-08T05:17:25;431.23;;;90.68;;
15883;SDS011;8040;50.254;10.960;2024-03-08T05:19:51;432.77;;;90.07;;
15883;SDS011;8040;50.254;10.960;2024-03-08T05:22:16;439.92;;;94.97;;
15883;SDS011;8040;50.254;10.960;2024-03-08T05:24:42;443.93;;;94.93;;
15883;SDS011;8040;50.254;10.960;2024-03-08T05:27:08;421.02;;;87.20;;
15883;SDS011;8040;50.254;10.960;2024-03-08T05:29:33;438.23;;;93.33;;
15883;SDS011;8040;50.254;10.960;2024-03-08T05:31:59;441.23;;;94.80;;
15883;SDS011;8040;50.254;10.960;2024-03-08T05:34:25;438.43;;;92.87;;
15883;SDS011;8040;50.254;10.960;2024-03-08T05:36:51;451.03;;;98.33;;
15883;SDS011;8040;50.254;10.960;2024-03-08T05:39:17;433.25;;;91.72;;
15883;SDS011;8040;50.254;10.960;2024-03-08T05:41:44;436.52;;;91.10;;
15883;SDS011;8040;50.254;10.960;2024-03-08T05:44:11;440.23;;;93.50;;
15883;SDS011;8040;50.254;10.960;2024-03-08T05:46:36;439.47;;;94.27;;
15883;SDS011;8040;50.254;10.960;2024-03-08T05:49:05;448.80;;;96.55;;
15883;SDS011;8040;50.254;10.960;2024-03-08T05:51:32;457.85;;;99.80;;
15883;SDS011;8040;50.254;10.960;2024-03-08T05:54:01;443.25;;;95.03;;
15883;SDS011;8040;50.254;10.960;2024-03-08T05:56:34;450.27;;;95.20;;
15883;SDS011;8040;50.254;10.960;2024-03-08T05:59:00;440.95;;;92.53;;
15883;SDS011;8040;50.254;10.960;2024-03-08T06:01:26;439.13;;;93.53;;
15883;SDS011;8040;50.254;10.960;2024-03-08T06:03:55;455.87;;;99.63;;
15883;SDS011;8040;50.254;10.960;2024-03-08T06:06:25;442.63;;;94.18;;
15883;SDS011;8040;50.254;10.960;2024-03-08T06:08:51;455.73;;;98.72;;
15883;SDS011;8040;50.254;10.960;2024-03-08T06:11:17;456.63;;;99.93;;
15883;SDS011;8040;50.254;10.960;2024-03-08T06:13:47;471.52;;;104.40;;
15883;SDS011;8040;50.254;10.960;2024-03-08T06:16:13;480.50;;;107.93;;
15883;SDS011;8040;50.254;10.960;2024-03-08T06:18:38;464.35;;;102.80;;
15883;SDS011;8040;50.254;10.960;2024-03-08T06:21:10;477.20;;;105.32;;
15883;SDS011;8040;50.254;10.960;2024-03-08T06:23:37;461.92;;;101.00;;
15883;SDS011;8040;50.254;10.960;2024-03-08T06:26:05;503.33;;;115.50;;
15883;SDS011;8040;50.254;10.960;2024-03-08T06:28:31;490.38;;;112.55;;
15883;SDS011;8040;50.254;10.960;2024-03-08T06:30:58;496.90;;;115.60;;
15883;SDS011;8040;50.254;10.960;2024-03-08T06:33:24;501.53;;;115.33;;
15883;SDS011;8040;50.254;10.960;2024-03-08T06:35:51;487.73;;;110.35;;
15883;SDS011;8040;50.254;10.960;2024-03-08T06:38:17;474.50;;;106.13;;
15883;SDS011;8040;50.254;10.960;2024-03-08T06:40:44;484.08;;;107.38;;
15883;SDS011;8040;50.254;10.960;2024-03-08T06:43:14;474.63;;;105.03;;
15883;SDS011;8040;50.254;10.960;2024-03-08T06:45:44;477.17;;;104.75;;
15883;SDS011;8040;50.254;10.960;2024-03-08T06:48:16;469.52;;;103.10;;
15883;SDS011;8040;50.254;10.960;2024-03-08T06:50:43;470.83;;;104.53;;
15883;SDS011;8040;50.254;10.960;2024-03-08T06:53:15;488.02;;;108.78;;
15883;SDS011;8040;50.254;10.960;2024-03-08T06:55:54;455.30;;;97.47;;
15883;SDS011;8040;50.254;10.960;2024-03-08T06:58:35;460.30;;;103.03;;
15883;SDS011;8040;50.254;10.960;2024-03-08T07:01:11;441.33;;;92.78;;
15883;SDS011;8040;50.254;10.960;2024-03-08T07:03:59;443.90;;;96.00;;
15883;SDS011;8040;50.254;10.960;2024-03-08T07:06:59;446.00;;;96.40;;
15883;SDS011;8040;50.254;10.960;2024-03-08T07:09:40;464.50;;;102.72;;
15883;SDS011;8040;50.254;10.960;2024-03-08T07:12:15;458.27;;;99.60;;
15883;SDS011;8040;50.254;10.960;2024-03-08T07:14:40;480.38;;;110.28;;
15883;SDS011;8040;50.254;10.960;2024-03-08T07:17:27;467.67;;;104.45;;
15883;SDS011;8040;50.254;10.960;2024-03-08T07:19:55;466.95;;;110.75;;
15883;SDS011;8040;50.254;10.960;2024-03-08T07:22:34;468.33;;;110.63;;
15883;SDS011;8040;50.254;10.960;2024-03-08T07:25:12;468.30;;;109.00;;
15883;SDS011;8040;50.254;10.960;2024-03-08T07:28:03;455.95;;;102.28;;
15883;SDS011;8040;50.254;10.960;2024-03-08T07:30:33;451.43;;;97.87;;
15883;SDS011;8040;50.254;10.960;2024-03-08T07:33:12;468.98;;;107.78;;
15883;SDS011;8040;50.254;10.960;2024-03-08T07:35:38;458.65;;;101.82;;
15883;SDS011;8040;50.254;10.960;2024-03-08T07:38:04;456.48;;;100.47;;
15883;SDS011;8040;50.254;10.960;2024-03-08T07:40:30;456.15;;;101.35;;
15883;SDS011;8040;50.254;10.960;2024-03-08T07:42:57;447.27;;;99.10;;
15883;SDS011;8040;50.254;10.960;2024-03-08T07:45:23;438.10;;;95.45;;
15883;SDS011;8040;50.254;10.960;2024-03-08T07:47:49;458.80;;;102.83;;
15883;SDS011;8040;50.254;10.960;2024-03-08T07:50:16;441.17;;;97.47;;
15883;SDS011;8040;50.254;10.960;2024-03-08T07:52:44;452.17;;;100.68;;
15883;SDS011;8040;50.254;10.960;2024-03-08T07:55:10;434.67;;;99.95;;
15883;SDS011;8040;50.254;10.960;2024-03-08T07:57:35;467.67;;;105.17;;
15883;SDS011;8040;50.254;10.960;2024-03-08T08:00:03;465.77;;;106.93;;
15883;SDS011;8040;50.254;10.960;2024-03-08T08:02:35;453.13;;;103.03;;
15883;SDS011;8040;50.254;10.960;2024-03-08T08:05:01;440.05;;;97.13;;
15883;SDS011;8040;50.254;10.960;2024-03-08T08:07:27;445.20;;;99.37;;
15883;SDS011;8040;50.254;10.960;2024-03-08T08:09:53;439.60;;;96.15;;
15883;SDS011;8040;50.254;10.960;2024-03-08T08:12:18;446.88;;;98.70;;
15883;SDS011;8040;50.254;10.960;2024-03-08T08:14:47;437.93;;;97.63;;
15883;SDS011;8040;50.254;10.960;2024-03-08T08:17:12;454.02;;;102.55;;
15883;SDS011;8040;50.254;10.960;2024-03-08T08:19:38;444.63;;;100.50;;
15883;SDS011;8040;50.254;10.960;2024-03-08T08:22:06;434.65;;;95.78;;
15883;SDS011;8040;50.254;10.960;2024-03-08T08:24:34;448.13;;;99.95;;
15883;SDS011;8040;50.254;10.960;2024-03-08T08:26:59;466.00;;;106.38;;
15883;SDS011;8040;50.254;10.960;2024-03-08T08:29:25;476.17;;;110.80;;
15883;SDS011;8040;50.254;10.960;2024-03-08T08:31:51;470.27;;;105.70;;
15883;SDS011;8040;50.254;10.960;2024-03-08T08:34:16;459.13;;;104.30;;
15883;SDS011;8040;50.254;10.960;2024-03-08T08:36:45;447.23;;;99.10;;
15883;SDS011;8040;50.254;10.960;2024-03-08T08:39:11;491.05;;;114.30;;
15883;SDS011;8040;50.254;10.960;2024-03-08T08:41:38;426.27;;;94.60;;
15883;SDS011;8040;50.254;10.960;2024-03-08T08:44:07;434.10;;;96.00;;
15883;SDS011;8040;50.254;10.960;2024-03-08T08:46:35;432.48;;;95.55;;
15883;SDS011;8040;50.254;10.960;2024-03-08T08:49:05;438.70;;;97.22;;
15883;SDS011;8040;50.254;10.960;2024-03-08T08:51:34;429.83;;;94.68;;
15883;SDS011;8040;50.254;10.960;2024-03-08T08:53:59;437.97;;;98.90;;
15883;SDS011;8040;50.254;10.960;2024-03-08T08:56:25;442.20;;;98.67;;
15883;SDS011;8040;50.254;10.960;2024-03-08T09:02:14;433.65;;;96.95;;
15883;SDS011;8040;50.254;10.960;2024-03-08T09:04:42;441.42;;;99.60;;
15883;SDS011;8040;50.254;10.960;2024-03-08T09:07:09;444.73;;;102.53;;
15883;SDS011;8040;50.254;10.960;2024-03-08T09:09:34;455.27;;;105.60;;
15883;SDS011;8040;50.254;10.960;2024-03-08T09:12:01;445.80;;;100.85;;
15883;SDS011;8040;50.254;10.960;2024-03-08T09:14:26;420.95;;;94.25;;
15883;SDS011;8040;50.254;10.960;2024-03-08T09:16:52;439.08;;;99.05;;
15883;SDS011;8040;50.254;10.960;2024-03-08T09:19:17;443.63;;;101.60;;
15883;SDS011;8040;50.254;10.960;2024-03-08T09:21:44;429.75;;;101.55;;
15883;SDS011;8040;50.254;10.960;2024-03-08T09:24:10;445.40;;;104.25;;
15883;SDS011;8040;50.254;10.960;2024-03-08T09:26:35;438.15;;;100.70;;
15883;SDS011;8040;50.254;10.960;2024-03-08T09:29:01;446.67;;;102.78;;
15883;SDS011;8040;50.254;10.960;2024-03-08T09:31:26;433.67;;;101.67;;
15883;SDS011;8040;50.254;10.960;2024-03-08T09:33:51;447.10;;;103.63;;
15883;SDS011;8040;50.254;10.960;2024-03-08T09:36:17;434.87;;;98.97;;
15883;SDS011;8040;50.254;10.960;2024-03-08T09:38:42;436.63;;;101.93;;
15883;SDS011;8040;50.254;10.960;2024-03-08T09:41:08;447.92;;;105.55;;
15883;SDS011;8040;50.254;10.960;2024-03-08T09:47:18;442.33;;;104.47;;
15883;SDS011;8040;50.254;10.960;2024-03-08T09:49:47;459.25;;;108.13;;
15883;SDS011;8040;50.254;10.960;2024-03-08T09:52:13;442.73;;;104.47;;
15883;SDS011;8040;50.254;10.960;2024-03-08T09:54:40;453.60;;;108.65;;
15883;SDS011;8040;50.254;10.960;2024-03-08T09:57:09;447.02;;;106.53;;
15883;SDS011;8040;50.254;10.960;2024-03-08T09:59:35;451.02;;;107.25;;
15883;SDS011;8040;50.254;10.960;2024-03-08T10:02:01;440.37;;;104.90;;
15883;SDS011;8040;50.254;10.960;2024-03-08T10:04:28;474.73;;;115.07;;
15883;SDS011;8040;50.254;10.960;2024-03-08T10:06:57;449.15;;;109.07;;
15883;SDS011;8040;50.254;10.960;2024-03-08T10:09:24;445.13;;;106.28;;
15883;SDS011;8040;50.254;10.960;2024-03-08T10:11:55;434.02;;;103.05;;
15883;SDS011;8040;50.254;10.960;2024-03-08T10:14:23;440.98;;;105.35;;
15883;SDS011;8040;50.254;10.960;2024-03-08T10:16:49;439.15;;;105.00;;
15883;SDS011;8040;50.254;10.960;2024-03-08T10:19:14;442.00;;;106.77;;
15883;SDS011;8040;50.254;10.960;2024-03-08T10:21:48;456.70;;;111.50;;
15883;SDS011;8040;50.254;10.960;2024-03-08T10:24:14;452.15;;;122.18;;
15883;SDS011;8040;50.254;10.960;2024-03-08T10:26:40;445.93;;;110.00;;
15883;SDS011;8040;50.254;10.960;2024-03-08T10:29:05;452.27;;;119.57;;
15883;SDS011;8040;50.254;10.960;2024-03-08T10:31:34;450.07;;;110.70;;
15883;SDS011;8040;50.254;10.960;2024-03-08T10:33:59;436.87;;;106.90;;
15883;SDS011;8040;50.254;10.960;2024-03-08T10:36:26;437.93;;;104.73;;
15883;SDS011;8040;50.254;10.960;2024-03-08T10:38:53;446.45;;;108.22;;
15883;SDS011;8040;50.254;10.960;2024-03-08T10:41:22;452.67;;;109.15;;
15883;SDS011;8040;50.254;10.960;2024-03-08T10:44:10;438.20;;;105.57;;
15883;SDS011;8040;50.254;10.960;2024-03-08T10:46:49;458.58;;;111.78;;
15883;SDS011;8040;50.254;10.960;2024-03-08T10:49:28;448.35;;;107.53;;
15883;SDS011;8040;50.254;10.960;2024-03-08T10:52:09;449.17;;;110.38;;
15883;SDS011;8040;50.254;10.960;2024-03-08T10:54:37;451.77;;;110.22;;
15883;SDS011;8040;50.254;10.960;2024-03-08T10:57:05;436.20;;;105.90;;
15883;SDS011;8040;50.254;10.960;2024-03-08T10:59:34;444.17;;;108.65;;
15883;SDS011;8040;50.254;10.960;2024-03-08T11:02:00;441.40;;;109.00;;
15883;SDS011;8040;50.254;10.960;2024-03-08T11:04:26;444.67;;;110.43;;
15883;SDS011;8040;50.254;10.960;2024-03-08T11:06:54;461.20;;;114.95;;
15883;SDS011;8040;50.254;10.960;2024-03-08T11:09:31;459.90;;;114.93;;
15883;SDS011;8040;50.254;10.960;2024-03-08T11:15:00;454.65;;;113.72;;
15883;SDS011;8040;50.254;10.960;2024-03-08T11:19:58;454.27;;;114.53;;
15883;SDS011;8040;50.254;10.960;2024-03-08T11:22:32;442.25;;;111.85;;
15883;SDS011;8040;50.254;10.960;2024-03-08T11:24:58;429.77;;;107.03;;
15883;SDS011;8040;50.254;10.960;2024-03-08T11:27:31;447.90;;;114.22;;
15883;SDS011;8040;50.254;10.960;2024-03-08T11:30:04;463.27;;;121.97;;
15883;SDS011;8040;50.254;10.960;2024-03-08T11:32:46;479.48;;;128.02;;
15883;SDS011;8040;50.254;10.960;2024-03-08T11:35:21;471.95;;;122.22;;
15883;SDS011;8040;50.254;10.960;2024-03-08T11:37:50;476.17;;;124.70;;
15883;SDS011;8040;50.254;10.960;2024-03-08T11:40:16;482.15;;;127.88;;
15883;SDS011;8040;50.254;10.960;2024-03-08T11:42:45;447.50;;;116.15;;
15883;SDS011;8040;50.254;10.960;2024-03-08T11:45:16;450.67;;;120.28;;
15883;SDS011;8040;50.254;10.960;2024-03-08T11:47:42;453.90;;;120.63;;
15883;SDS011;8040;50.254;10.960;2024-03-08T11:50:12;448.17;;;116.20;;
15883;SDS011;8040;50.254;10.960;2024-03-08T11:52:43;452.52;;;117.93;;
15883;SDS011;8040;50.254;10.960;2024-03-08T11:55:09;459.95;;;120.32;;
15883;SDS011;8040;50.254;10.960;2024-03-08T11:57:37;448.33;;;117.03;;
15883;SDS011;8040;50.254;10.960;2024-03-08T12:00:03;466.67;;;121.43;;
15883;SDS011;8040;50.254;10.960;2024-03-08T12:02:32;461.20;;;121.68;;
15883;SDS011;8040;50.254;10.960;2024-03-08T12:05:03;466.25;;;127.57;;
15883;SDS011;8040;50.254;10.960;2024-03-08T12:07:29;492.70;;;132.27;;
15883;SDS011;8040;50.254;10.960;2024-03-08T12:10:16;489.43;;;132.00;;
15883;SDS011;8040;50.254;10.960;2024-03-08T12:12:44;467.88;;;122.85;;
15883;SDS011;8040;50.254;10.960;2024-03-08T12:15:11;503.08;;;134.02;;
15883;SDS011;8040;50.254;10.960;2024-03-08T12:17:37;514.78;;;140.30;;
15883;SDS011;8040;50.254;10.960;2024-03-08T12:20:23;489.92;;;133.40;;
15883;SDS011;8040;50.254;10.960;2024-03-08T12:22:56;510.73;;;144.73;;
15883;SDS011;8040;50.254;10.960;2024-03-08T12:25:26;486.80;;;131.85;;
15883;SDS011;8040;50.254;10.960;2024-03-08T12:28:07;487.52;;;131.15;;
15883;SDS011;8040;50.254;10.960;2024-03-08T12:30:51;476.97;;;127.37;;
15883;SDS011;8040;50.254;10.960;2024-03-08T12:33:22;483.58;;;129.65;;
15883;SDS011;8040;50.254;10.960;2024-03-08T12:35:54;470.08;;;126.15;;
15883;SDS011;8040;50.254;10.960;2024-03-08T12:38:23;487.13;;;133.02;;
15883;SDS011;8040;50.254;10.960;2024-03-08T12:40:57;456.85;;;122.45;;
15883;SDS011;8040;50.254;10.960;2024-03-08T12:43:23;462.17;;;125.35;;
15883;SDS011;8040;50.254;10.960;2024-03-08T12:45:49;454.90;;;122.07;;
15883;SDS011;8040;50.254;10.960;2024-03-08T12:48:15;477.17;;;128.57;;
15883;SDS011;8040;50.254;10.960;2024-03-08T12:50:41;456.57;;;123.80;;
15883;SDS011;8040;50.254;10.960;2024-03-08T12:53:10;453.13;;;123.43;;
15883;SDS011;8040;50.254;10.960;2024-03-08T12:55:36;465.95;;;127.63;;
15883;SDS011;8040;50.254;10.960;2024-03-08T12:58:01;482.10;;;131.18;;
15883;SDS011;8040;50.254;10.960;2024-03-08T13:00:27;462.90;;;145.38;;
15883;SDS011;8040;50.254;10.960;2024-03-08T13:02:53;466.77;;;129.13;;
15883;SDS011;8040;50.254;10.960;2024-03-08T13:05:18;466.53;;;128.93;;
15883;SDS011;8040;50.254;10.960;2024-03-08T13:07:45;469.88;;;128.95;;
15883;SDS011;8040;50.254;10.960;2024-03-08T13:10:14;485.48;;;132.68;;
15883;SDS011;8040;50.254;10.960;2024-03-08T13:12:44;465.67;;;127.18;;
15883;SDS011;8040;50.254;10.960;2024-03-08T13:15:10;493.67;;;135.07;;
15883;SDS011;8040;50.254;10.960;2024-03-08T13:17:48;491.50;;;137.45;;
15883;SDS011;8040;50.254;10.960;2024-03-08T13:20:14;467.52;;;131.05;;
15883;SDS011;8040;50.254;10.960;2024-03-08T13:22:43;469.65;;;135.35;;
15883;SDS011;8040;50.254;10.960;2024-03-08T13:25:10;463.47;;;134.07;;
15883;SDS011;8040;50.254;10.960;2024-03-08T13:27:39;482.65;;;137.52;;
15883;SDS011;8040;50.254;10.960;2024-03-08T13:30:06;471.80;;;135.40;;
15883;SDS011;8040;50.254;10.960;2024-03-08T13:35:19;453.50;;;123.95;;
15883;SDS011;8040;50.254;10.960;2024-03-08T13:37:49;469.95;;;144.85;;
15883;SDS011;8040;50.254;10.960;2024-03-08T13:40:16;465.58;;;137.77;;
15883;SDS011;8040;50.254;10.960;2024-03-08T13:42:48;475.15;;;145.65;;
15883;SDS011;8040;50.254;10.960;2024-03-08T13:45:14;464.10;;;131.05;;
15883;SDS011;8040;50.254;10.960;2024-03-08T13:47:43;458.45;;;131.98;;
15883;SDS011;8040;50.254;10.960;2024-03-08T13:50:09;450.58;;;125.35;;
15883;SDS011;8040;50.254;10.960;2024-03-08T13:52:38;452.35;;;136.77;;
15883;SDS011;8040;50.254;10.960;2024-03-08T13:55:05;459.00;;;128.50;;
15883;SDS011;8040;50.254;10.960;2024-03-08T13:57:31;459.13;;;131.37;;
15883;SDS011;8040;50.254;10.960;2024-03-08T13:59:57;458.15;;;132.38;;
15883;SDS011;8040;50.254;10.960;2024-03-08T14:02:23;447.75;;;126.45;;
15883;SDS011;8040;50.254;10.960;2024-03-08T14:04:53;457.33;;;147.18;;
15883;SDS011;8040;50.254;10.960;2024-03-08T14:07:20;461.85;;;137.52;;
15883;SDS011;8040;50.254;10.960;2024-03-08T14:09:45;464.85;;;143.52;;
15883;SDS011;8040;50.254;10.960;2024-03-08T14:12:11;460.88;;;136.40;;
15883;SDS011;8040;50.254;10.960;2024-03-08T14:14:38;473.03;;;138.73;;
15883;SDS011;8040;50.254;10.960;2024-03-08T14:17:04;471.97;;;152.57;;
15883;SDS011;8040;50.254;10.960;2024-03-08T14:19:32;447.30;;;130.32;;
15883;SDS011;8040;50.254;10.960;2024-03-08T14:21:59;466.60;;;140.40;;
15883;SDS011;8040;50.254;10.960;2024-03-08T14:24:24;464.45;;;140.90;;